createdAt,value
2022-12-04T00:01:30.900Z,81.72
2022-12-04T00:11:34.587Z,81.54
2022-12-04T00:21:38.677Z,81.28
2022-12-04T00:31:41.425Z,81.75
2022-12-04T00:41:45.570Z,81.55
2022-12-04T00:51:48.234Z,81.77
2022-12-04T01:01:52.202Z,81.82
2022-12-04T01:11:54.918Z,81.88
2022-12-04T01:21:58.936Z,81.61
2022-12-04T01:32:01.778Z,82.03
2022-12-04T01:42:06.730Z,82.46
2022-12-04T01:52:14.896Z,82.24
2022-12-04T02:02:23.538Z,82.51
2022-12-04T02:12:34.362Z,82.51
2022-12-04T02:23:00.675Z,82.49
2022-12-04T02:33:09.764Z,82.33
2022-12-04T02:43:16.761Z,82.59
2022-12-04T02:53:24.093Z,83.26
2022-12-04T03:03:29.807Z,83.23
2022-12-04T03:13:38.859Z,83.09
2022-12-04T03:23:47.717Z,83.16
2022-12-04T03:33:54.984Z,83.23
2022-12-04T03:44:02.535Z,83.45
2022-12-04T03:54:11.759Z,83.26
2022-12-04T04:04:19.175Z,83.13
2022-12-04T04:14:45.930Z,83.01
2022-12-04T04:24:53.369Z,83.24
2022-12-04T04:35:04.227Z,83.32
2022-12-04T04:45:12.348Z,83.45
2022-12-04T04:55:18.866Z,83.76
2022-12-04T05:05:21.607Z,83.84
2022-12-04T05:15:25.602Z,84.75
2022-12-04T05:25:28.308Z,84.97
2022-12-04T05:35:32.477Z,85.38
2022-12-04T05:45:35.167Z,85.21
2022-12-04T05:55:39.306Z,85.86
2022-12-04T06:05:41.986Z,86.12
2022-12-04T06:15:45.999Z,85.90
2022-12-04T06:25:48.702Z,86.41
2022-12-04T06:36:00.503Z,86.29
2022-12-04T06:46:04.404Z,86.45
2022-12-04T06:56:11.218Z,86.60
2022-12-04T07:06:16.123Z,86.91
2022-12-04T07:16:22.533Z,86.88
2022-12-04T07:26:26.468Z,86.90
2022-12-04T07:36:30.484Z,86.70
2022-12-04T07:46:33.322Z,86.50
2022-12-04T07:56:37.458Z,86.34
2022-12-04T08:06:40.762Z,86.45
2022-12-04T08:16:49.649Z,86.32
2022-12-04T08:26:55.132Z,85.92
2022-12-04T08:36:59.356Z,85.51
2022-12-04T08:47:02.061Z,85.36
2022-12-04T08:57:06.335Z,85.40
2022-12-04T09:07:09.003Z,85.09
2022-12-04T09:17:13.097Z,84.68
2022-12-04T09:27:16.991Z,84.12
2022-12-04T09:37:21.278Z,83.74
2022-12-04T09:47:28.657Z,83.37
2022-12-04T09:57:39.847Z,82.55
2022-12-04T10:07:45.878Z,81.88
2022-12-04T10:18:02.098Z,81.88
2022-12-04T10:28:21.960Z,81.49
2022-12-04T10:38:33.680Z,81.24
2022-12-04T10:48:39.682Z,81.36
2022-12-04T10:58:43.844Z,81.36
2022-12-04T11:08:53.169Z,81.14
2022-12-04T11:18:57.404Z,81.31
2022-12-04T11:29:02.415Z,81.49
2022-12-04T11:39:15.512Z,81.54
2022-12-04T11:49:22.823Z,82.19
2022-12-04T11:59:53.147Z,82.02
2022-12-04T12:10:03.645Z,82.29
2022-12-04T12:20:16.528Z,82.26
2022-12-04T12:30:21.396Z,82.41
2022-12-04T12:40:33.318Z,82.87
2022-12-04T12:50:43.475Z,83.12
2022-12-04T13:00:52.552Z,83.87
2022-12-04T13:11:04.775Z,84.63
2022-12-04T13:21:14.979Z,84.78
2022-12-04T13:31:26.692Z,84.34
2022-12-04T13:41:35.481Z,84.19
2022-12-04T13:51:40.394Z,83.95
2022-12-04T14:01:47.662Z,84.00
2022-12-04T14:11:55.018Z,84.26
2022-12-04T14:21:59.698Z,84.35
2022-12-04T14:32:10.568Z,84.74
2022-12-04T14:42:18.242Z,85.32
2022-12-04T14:52:29.436Z,85.23
2022-12-04T15:02:39.844Z,86.03
2022-12-04T15:12:49.192Z,86.18
2022-12-04T15:22:57.306Z,86.14
2022-12-04T15:33:00.484Z,86.27
2022-12-04T15:43:17.680Z,86.12
2022-12-04T15:53:27.344Z,85.68
2022-12-04T16:03:33.098Z,85.57
2022-12-04T16:13:37.830Z,85.22
2022-12-04T16:23:41.853Z,85.78
2022-12-04T16:33:44.552Z,85.78
2022-12-04T16:43:54.978Z,85.71
2022-12-04T16:53:57.706Z,86.08
2022-12-04T17:04:01.863Z,86.11
2022-12-04T17:14:07.289Z,86.18
2022-12-04T17:24:11.366Z,86.12
2022-12-04T17:34:14.062Z,86.38
2022-12-04T17:44:18.116Z,86.60
2022-12-04T17:54:20.821Z,86.85
2022-12-04T18:04:24.979Z,87.33
2022-12-04T18:14:27.700Z,87.02
2022-12-04T18:24:31.889Z,87.17
2022-12-04T18:34:35.627Z,86.83
2022-12-04T18:44:39.662Z,86.91
2022-12-04T18:54:42.392Z,86.96
2022-12-04T19:04:46.819Z,87.39
2022-12-04T19:14:49.770Z,87.44
2022-12-04T19:24:53.886Z,87.44
2022-12-04T19:34:56.591Z,87.31
2022-12-04T19:45:00.653Z,87.60
2022-12-04T19:55:03.370Z,87.44
2022-12-04T20:05:08.147Z,87.34
2022-12-04T20:15:11.266Z,87.33
2022-12-04T20:25:15.365Z,87.64
2022-12-04T20:35:18.288Z,87.67
2022-12-04T20:45:22.501Z,87.93
2022-12-04T20:55:25.192Z,87.94
2022-12-04T21:05:29.265Z,88.18
2022-12-04T21:15:49.886Z,88.35
2022-12-04T21:25:56.318Z,88.25
2022-12-04T21:36:03.699Z,88.60
2022-12-04T21:46:09.654Z,88.25
2022-12-04T21:56:12.721Z,87.94
2022-12-04T22:06:16.851Z,87.73
2022-12-04T22:16:25.620Z,87.41
2022-12-04T22:26:34.158Z,87.54
2022-12-04T22:36:37.129Z,87.55
2022-12-04T22:46:41.269Z,87.96
2022-12-04T22:56:44.751Z,87.91
2022-12-04T23:06:48.823Z,88.33
2022-12-04T23:16:51.872Z,88.11
2022-12-04T23:26:55.954Z,87.77
2022-12-04T23:36:58.625Z,87.92
2022-12-04T23:47:02.951Z,88.72
2022-12-04T23:57:06.913Z,88.80
